createdAt,value
2023-02-25T00:00:32.917Z,7.12
2023-02-25T00:02:59.578Z,7.05
2023-02-25T00:05:27.114Z,7.26
2023-02-25T00:07:54.026Z,7.36
2023-02-25T00:10:21.320Z,7.02
2023-02-25T00:12:48.065Z,7.02
2023-02-25T00:15:14.674Z,6.87
2023-02-25T00:17:41.402Z,6.28
2023-02-25T00:20:09.290Z,6.56
2023-02-25T00:22:36.696Z,6.77
2023-02-25T00:25:03.500Z,7.14
2023-02-25T00:27:31.154Z,6.89
2023-02-25T00:29:57.859Z,7.05
2023-02-25T00:32:24.640Z,7.11
2023-02-25T00:34:51.390Z,7.20
2023-02-25T00:37:18.348Z,6.85
2023-02-25T00:39:45.217Z,7.13
2023-02-25T00:42:14.697Z,7.46
2023-02-25T00:44:45.396Z,7.39
2023-02-25T00:47:12.458Z,7.56
2023-02-25T00:49:39.120Z,7.49
2023-02-25T00:52:07.111Z,7.26
2023-02-25T00:54:34.466Z,7.41
2023-02-25T00:57:01.171Z,7.41
2023-02-25T00:59:27.967Z,7.19
2023-02-25T01:01:55.800Z,6.90
2023-02-25T01:04:22.489Z,6.75
2023-02-25T01:06:49.485Z,6.68
2023-02-25T01:09:16.250Z,6.81
2023-02-25T01:11:46.192Z,6.77
2023-02-25T01:14:17.016Z,7.13
2023-02-25T01:16:45.227Z,7.42
2023-02-25T01:19:15.092Z,6.58
2023-02-25T01:21:44.815Z,6.52
2023-02-25T01:24:15.124Z,7.12
2023-02-25T01:26:43.251Z,7.26
2023-02-25T01:29:12.950Z,6.53
2023-02-25T01:31:40.577Z,6.72
2023-02-25T01:34:09.062Z,6.88
2023-02-25T01:36:35.812Z,6.75
2023-02-25T01:39:04.121Z,6.36
2023-02-25T01:41:33.762Z,6.80
2023-02-25T01:44:12.362Z,6.89
2023-02-25T01:46:41.471Z,6.27
2023-02-25T01:49:16.775Z,6.52
2023-02-25T01:51:47.687Z,6.25
2023-02-25T01:54:15.167Z,6.76
2023-02-25T01:56:47.608Z,6.44
2023-02-25T01:59:15.569Z,6.63
2023-02-25T02:01:43.753Z,6.80
2023-02-25T02:04:13.548Z,6.70
2023-02-25T02:06:43.002Z,6.40
2023-02-25T02:09:14.132Z,5.63
2023-02-25T02:11:41.489Z,5.70
2023-02-25T02:14:12.343Z,5.52
2023-02-25T02:16:54.164Z,5.57
2023-02-25T02:19:48.125Z,5.62
2023-02-25T02:22:29.867Z,5.69
2023-02-25T02:25:40.634Z,5.41
2023-02-25T02:28:25.665Z,5.37
2023-02-25T02:30:55.314Z,5.71
2023-02-25T02:33:46.203Z,5.60
2023-02-25T02:36:37.397Z,5.57
2023-02-25T02:39:22.396Z,5.89
2023-02-25T02:42:10.943Z,6.34
2023-02-25T02:44:44.303Z,5.96
2023-02-25T02:47:19.014Z,5.81
2023-02-25T02:50:26.500Z,6.55
2023-02-25T02:52:58.504Z,6.32
2023-02-25T02:55:35.210Z,6.19
2023-02-25T02:58:10.622Z,6.25
2023-02-25T03:00:44.549Z,5.82
2023-02-25T03:03:17.384Z,5.88
2023-02-25T03:05:49.823Z,6.04
2023-02-25T03:08:28.211Z,6.05
2023-02-25T03:10:55.054Z,6.22
2023-02-25T03:13:22.003Z,5.66
2023-02-25T03:15:51.207Z,5.85
2023-02-25T03:18:20.842Z,5.83
2023-02-25T03:20:49.833Z,6.15
2023-02-25T03:23:31.379Z,6.40
2023-02-25T03:26:14.651Z,5.70
2023-02-25T03:28:44.924Z,6.09
2023-02-25T03:31:20.799Z,5.63
2023-02-25T03:34:08.663Z,5.35
2023-02-25T03:36:41.566Z,5.90
2023-02-25T03:39:13.789Z,5.55
2023-02-25T03:41:44.979Z,5.89
2023-02-25T03:44:17.410Z,5.65
2023-02-25T03:46:47.374Z,6.25
2023-02-25T03:49:24.833Z,5.98
2023-02-25T03:51:54.590Z,5.91
2023-02-25T03:54:21.278Z,5.48
2023-02-25T03:56:49.994Z,5.81
2023-02-25T03:59:18.073Z,5.65
2023-02-25T04:01:47.895Z,5.66
2023-02-25T04:04:14.614Z,5.93
2023-02-25T04:06:41.574Z,5.99
2023-02-25T04:09:08.321Z,6.25
2023-02-25T04:11:34.938Z,5.84
2023-02-25T04:14:01.562Z,6.49
2023-02-25T04:16:28.251Z,6.54
2023-02-25T04:18:54.894Z,6.06
2023-02-25T04:21:47.635Z,6.64
2023-02-25T04:24:14.223Z,6.80
2023-02-25T04:26:42.366Z,6.43
2023-02-25T04:29:11.030Z,6.63
2023-02-25T04:31:37.837Z,6.68
2023-02-25T04:34:04.645Z,6.38
2023-02-25T04:36:34.559Z,6.37
2023-02-25T04:39:04.269Z,6.21
2023-02-25T04:41:34.239Z,5.75
2023-02-25T04:44:01.853Z,5.65
2023-02-25T04:46:28.540Z,5.59
2023-02-25T04:48:55.251Z,5.33
2023-02-25T04:51:25.060Z,5.50
2023-02-25T04:53:51.796Z,5.45
2023-02-25T04:56:18.695Z,5.74
2023-02-25T04:58:45.728Z,5.33
2023-02-25T05:01:12.860Z,5.59
2023-02-25T05:03:39.708Z,5.36
2023-02-25T05:06:07.420Z,5.46
2023-02-25T05:08:35.584Z,5.58
2023-02-25T05:11:03.729Z,5.59
2023-02-25T05:13:30.314Z,5.41
2023-02-25T05:16:12.515Z,5.58
2023-02-25T05:18:41.409Z,5.70
2023-02-25T05:21:20.430Z,5.88
2023-02-25T05:23:48.799Z,6.04
2023-02-25T05:26:17.353Z,5.99
2023-02-25T05:28:44.435Z,5.95
2023-02-25T05:31:12.342Z,5.93
2023-02-25T05:33:40.482Z,6.01
2023-02-25T05:36:08.586Z,6.05
2023-02-25T05:38:36.811Z,6.03
2023-02-25T05:41:04.960Z,5.92
2023-02-25T05:43:31.793Z,5.98
2023-02-25T05:46:00.619Z,5.91
2023-02-25T05:48:27.458Z,5.92
2023-02-25T05:51:01.388Z,5.91
2023-02-25T05:53:28.047Z,5.90
2023-02-25T05:55:54.743Z,5.75
2023-02-25T05:58:21.869Z,5.69
2023-02-25T06:00:48.592Z,5.71
2023-02-25T06:03:16.643Z,5.63
2023-02-25T06:05:43.943Z,5.55
2023-02-25T06:08:11.668Z,5.44
2023-02-25T06:10:39.783Z,5.68
2023-02-25T06:13:07.962Z,5.55
2023-02-25T06:15:38.298Z,5.56
2023-02-25T06:18:05.289Z,5.47
2023-02-25T06:20:33.001Z,5.52
2023-02-25T06:22:59.637Z,5.35
2023-02-25T06:25:26.310Z,5.27
2023-02-25T06:27:53.083Z,5.31
2023-02-25T06:30:19.811Z,5.19
2023-02-25T06:32:46.426Z,5.03
2023-02-25T06:35:13.077Z,4.93
2023-02-25T06:37:41.703Z,4.85
2023-02-25T06:40:09.067Z,4.96
2023-02-25T06:42:35.752Z,4.73
2023-02-25T06:45:02.406Z,4.88
2023-02-25T06:47:29.051Z,4.86
2023-02-25T06:49:55.741Z,4.56
2023-02-25T06:52:22.645Z,4.46
2023-02-25T06:54:50.527Z,4.41
2023-02-25T06:57:17.241Z,4.48
2023-02-25T06:59:43.856Z,4.68
2023-02-25T07:02:14.143Z,4.60
2023-02-25T07:04:43.891Z,4.70
2023-02-25T07:07:12.126Z,4.55
2023-02-25T07:09:38.731Z,4.60
2023-02-25T07:12:05.417Z,4.53
2023-02-25T07:14:32.175Z,4.55
2023-02-25T07:16:58.765Z,4.85
2023-02-25T07:19:25.583Z,4.65
2023-02-25T07:21:52.200Z,4.56
2023-02-25T07:24:18.834Z,4.79
2023-02-25T07:26:45.479Z,4.54
2023-02-25T07:29:12.331Z,4.51
2023-02-25T07:31:39.340Z,4.66
2023-02-25T07:34:06.685Z,4.50
2023-02-25T07:36:35.027Z,4.56
2023-02-25T07:39:03.128Z,4.56
2023-02-25T07:41:30.119Z,4.52
2023-02-25T07:43:56.731Z,4.60
2023-02-25T07:46:23.352Z,4.66
2023-02-25T07:48:50.031Z,4.61
2023-02-25T07:51:19.870Z,4.62
2023-02-25T07:53:47.507Z,4.45
2023-02-25T07:56:15.612Z,4.32
2023-02-25T07:58:42.483Z,4.38
2023-02-25T08:01:20.662Z,4.45
2023-02-25T08:03:47.365Z,4.21
2023-02-25T08:06:14.614Z,4.08
2023-02-25T08:08:41.377Z,4.08
2023-02-25T08:11:13.004Z,4.18
2023-02-25T08:13:40.475Z,4.14
2023-02-25T08:16:09.575Z,4.26
2023-02-25T08:18:36.549Z,4.32
2023-02-25T08:21:04.311Z,4.32
2023-02-25T08:23:31.249Z,4.42
2023-02-25T08:25:58.924Z,4.33
2023-02-25T08:28:27.280Z,4.34
2023-02-25T08:30:54.194Z,4.32
2023-02-25T08:33:21.232Z,4.29
2023-02-25T08:35:47.863Z,4.27
2023-02-25T08:38:14.454Z,4.32
2023-02-25T08:40:41.164Z,4.30
2023-02-25T08:43:08.614Z,4.22
2023-02-25T08:45:37.066Z,4.24
2023-02-25T08:48:03.940Z,4.34
2023-02-25T08:50:30.726Z,4.26
2023-02-25T08:52:57.677Z,4.48
2023-02-25T08:55:25.077Z,4.21
2023-02-25T08:57:52.469Z,4.42
2023-02-25T09:00:20.271Z,4.57
2023-02-25T09:02:47.578Z,4.49
2023-02-25T09:05:14.459Z,4.50
2023-02-25T09:07:41.138Z,4.29
2023-02-25T09:10:08.028Z,4.45
2023-02-25T09:12:34.734Z,4.48
2023-02-25T09:15:01.440Z,4.42
2023-02-25T09:17:28.265Z,4.57
2023-02-25T09:19:54.971Z,4.49
2023-02-25T09:22:21.559Z,4.63
2023-02-25T09:24:48.158Z,4.44
2023-02-25T09:27:14.842Z,4.56
2023-02-25T09:29:41.455Z,4.74
2023-02-25T09:32:09.062Z,4.63
2023-02-25T09:34:35.708Z,4.71
2023-02-25T09:37:05.364Z,4.73
2023-02-25T09:39:32.365Z,4.64
2023-02-25T09:42:11.915Z,4.51
2023-02-25T09:45:07.051Z,4.64
2023-02-25T09:47:58.065Z,4.83
2023-02-25T09:50:51.811Z,4.54
2023-02-25T09:53:38.490Z,4.42
2023-02-25T09:56:08.284Z,4.52
2023-02-25T09:58:43.873Z,4.55
2023-02-25T10:01:10.422Z,4.64
2023-02-25T10:03:58.920Z,4.69
2023-02-25T10:06:38.570Z,4.90
2023-02-25T10:09:21.872Z,4.77
2023-02-25T10:11:52.380Z,4.84
2023-02-25T10:14:24.884Z,4.78
2023-02-25T10:17:20.704Z,4.90
2023-02-25T10:20:25.623Z,5.20
2023-02-25T10:23:17.061Z,5.10
2023-02-25T10:25:52.831Z,5.23
2023-02-25T10:28:19.438Z,5.32
2023-02-25T10:31:04.260Z,5.10
2023-02-25T10:33:35.612Z,4.96
2023-02-25T10:36:18.451Z,5.09
2023-02-25T10:38:49.136Z,5.17
2023-02-25T10:41:16.023Z,5.13
2023-02-25T10:43:43.231Z,5.23
2023-02-25T10:46:25.667Z,5.37
2023-02-25T10:49:00.628Z,5.46
2023-02-25T10:51:27.850Z,5.22
2023-02-25T10:53:56.982Z,5.35
2023-02-25T10:56:45.347Z,5.24
2023-02-25T10:59:31.682Z,5.55
2023-02-25T11:02:00.576Z,5.56
2023-02-25T11:04:38.728Z,5.74
2023-02-25T11:07:25.127Z,5.80
2023-02-25T11:10:13.006Z,5.67
2023-02-25T11:12:49.719Z,5.82
2023-02-25T11:15:43.119Z,5.67
2023-02-25T11:18:29.661Z,6.00
2023-02-25T11:20:59.836Z,6.16
2023-02-25T11:23:39.952Z,6.18
2023-02-25T11:26:07.830Z,6.28
2023-02-25T11:28:39.894Z,6.51
2023-02-25T11:31:17.794Z,6.80
2023-02-25T11:33:55.761Z,7.03
2023-02-25T11:36:25.986Z,7.03
2023-02-25T11:39:14.602Z,7.30
2023-02-25T11:41:41.424Z,7.71
2023-02-25T11:44:21.922Z,7.60
2023-02-25T11:47:21.536Z,7.60
2023-02-25T11:50:19.981Z,6.97
2023-02-25T11:52:51.993Z,6.76
2023-02-25T11:55:54.094Z,6.74
2023-02-25T11:58:52.959Z,6.53
2023-02-25T12:01:19.509Z,6.51
2023-02-25T12:03:51.940Z,6.55
2023-02-25T12:06:37.247Z,6.57
2023-02-25T12:09:25.124Z,6.62
2023-02-25T12:12:36.525Z,6.97
2023-02-25T12:15:34.903Z,7.39
2023-02-25T12:18:40.046Z,7.51
2023-02-25T12:21:40.632Z,7.47
2023-02-25T12:24:29.107Z,7.12
2023-02-25T12:27:09.466Z,7.03
2023-02-25T12:29:47.432Z,7.25
2023-02-25T12:32:19.854Z,7.33
2023-02-25T12:35:37.662Z,7.67
2023-02-25T12:38:04.212Z,7.68
2023-02-25T12:40:41.651Z,7.87
2023-02-25T12:43:29.097Z,8.35
2023-02-25T12:46:21.131Z,8.38
2023-02-25T12:49:32.316Z,8.43
2023-02-25T12:52:18.871Z,8.59
2023-02-25T12:54:45.385Z,8.55
2023-02-25T12:57:55.279Z,7.98
2023-02-25T13:01:03.522Z,8.01
2023-02-25T13:03:54.647Z,8.04
2023-02-25T13:06:27.192Z,8.19
2023-02-25T13:08:56.633Z,8.28
2023-02-25T13:12:10.936Z,8.35
2023-02-25T13:14:56.523Z,8.30
2023-02-25T13:17:35.515Z,8.30
2023-02-25T13:20:20.303Z,8.11
2023-02-25T13:23:19.008Z,8.50
2023-02-25T13:26:00.625Z,8.47
2023-02-25T13:29:11.461Z,8.64
2023-02-25T13:31:46.857Z,8.48
2023-02-25T13:34:26.789Z,8.53
2023-02-25T13:37:19.450Z,8.70
2023-02-25T13:39:59.476Z,8.24
2023-02-25T13:42:41.104Z,8.36
2023-02-25T13:45:37.503Z,8.49
2023-02-25T13:48:48.886Z,8.51
2023-02-25T13:51:24.703Z,8.57
2023-02-25T13:53:51.684Z,8.50
2023-02-25T13:56:56.791Z,8.51
2023-02-25T13:59:38.531Z,8.39
2023-02-25T14:02:07.865Z,8.50
2023-02-25T14:04:52.825Z,8.43
2023-02-25T14:07:31.701Z,8.62
2023-02-25T14:10:30.901Z,8.55
2023-02-25T14:13:23.401Z,8.31
2023-02-25T14:15:53.148Z,8.02
2023-02-25T14:18:50.680Z,7.81
2023-02-25T14:21:50.364Z,7.67
2023-02-25T14:24:24.065Z,7.64
2023-02-25T14:26:56.518Z,7.81
2023-02-25T14:29:42.936Z,7.91
2023-02-25T14:32:35.353Z,7.76
2023-02-25T14:35:20.548Z,7.96
2023-02-25T14:38:02.054Z,8.05
2023-02-25T14:40:51.455Z,8.29
2023-02-25T14:43:28.166Z,7.82
2023-02-25T14:46:13.559Z,7.67
2023-02-25T14:48:58.912Z,7.76
2023-02-25T14:51:55.199Z,7.24
2023-02-25T14:54:33.604Z,7.20
2023-02-25T14:57:12.564Z,7.08
2023-02-25T14:59:45.000Z,7.11
2023-02-25T15:02:26.963Z,7.03
2023-02-25T15:05:30.375Z,7.12
2023-02-25T15:08:01.607Z,7.02
2023-02-25T15:10:47.420Z,6.80
2023-02-25T15:13:29.248Z,7.02
2023-02-25T15:16:33.598Z,6.72
2023-02-25T15:19:33.511Z,6.64
2023-02-25T15:22:25.260Z,6.38
2023-02-25T15:24:54.810Z,6.43
2023-02-25T15:27:36.272Z,6.18
2023-02-25T15:30:10.173Z,6.16
2023-02-25T15:33:01.880Z,6.38
2023-02-25T15:35:34.402Z,6.38
2023-02-25T15:38:00.958Z,6.39
2023-02-25T15:40:33.489Z,6.22
2023-02-25T15:43:01.004Z,6.26
2023-02-25T15:45:27.813Z,6.11
2023-02-25T15:48:17.522Z,6.00
2023-02-25T15:50:44.060Z,5.91
2023-02-25T15:53:37.201Z,5.76
2023-02-25T15:56:03.774Z,5.77
2023-02-25T15:58:30.352Z,6.25
2023-02-25T16:01:06.808Z,6.20
2023-02-25T16:03:33.441Z,5.85
2023-02-25T16:06:37.032Z,5.70
2023-02-25T16:09:10.808Z,5.81
2023-02-25T16:11:41.884Z,5.71
2023-02-25T16:14:34.491Z,5.81
2023-02-25T16:17:06.140Z,5.52
2023-02-25T16:19:37.046Z,5.76
2023-02-25T16:22:09.762Z,5.44
2023-02-25T16:24:36.813Z,5.48
2023-02-25T16:27:07.038Z,5.51
2023-02-25T16:30:11.778Z,5.38
2023-02-25T16:32:56.686Z,5.21
2023-02-25T16:35:26.025Z,5.14
2023-02-25T16:37:56.105Z,5.04
2023-02-25T16:40:31.228Z,5.20
2023-02-25T16:42:58.930Z,5.25
2023-02-25T16:45:30.735Z,5.16
2023-02-25T16:48:06.365Z,5.09
2023-02-25T16:50:35.432Z,4.93
2023-02-25T16:53:03.911Z,5.11
2023-02-25T16:55:39.090Z,4.92
2023-02-25T16:58:27.009Z,5.06
2023-02-25T17:00:59.148Z,4.78
2023-02-25T17:03:28.541Z,4.71
2023-02-25T17:06:19.120Z,5.30
2023-02-25T17:08:48.085Z,4.98
2023-02-25T17:11:24.090Z,5.03
2023-02-25T17:13:54.126Z,5.11
2023-02-25T17:16:28.509Z,4.79
2023-02-25T17:19:01.836Z,4.74
2023-02-25T17:21:34.225Z,4.91
2023-02-25T17:24:03.554Z,4.89
2023-02-25T17:26:31.881Z,4.90
2023-02-25T17:29:01.692Z,5.41
2023-02-25T17:31:30.051Z,4.96
2023-02-25T17:34:00.549Z,5.05
2023-02-25T17:36:33.639Z,4.63
2023-02-25T17:39:04.358Z,4.90
2023-02-25T17:41:31.163Z,5.27
2023-02-25T17:43:57.795Z,5.20
2023-02-25T17:46:34.367Z,5.06
2023-02-25T17:49:04.620Z,4.91
2023-02-25T17:51:34.749Z,4.65
2023-02-25T17:54:12.123Z,4.72
2023-02-25T17:56:39.308Z,4.95
2023-02-25T17:59:30.004Z,4.87
2023-02-25T18:02:01.827Z,4.48
2023-02-25T18:04:37.564Z,4.56
2023-02-25T18:07:30.571Z,4.30
2023-02-25T18:10:00.039Z,4.32
2023-02-25T18:12:32.610Z,4.35
2023-02-25T18:15:06.868Z,4.22
2023-02-25T18:17:41.164Z,4.22
2023-02-25T18:20:30.607Z,4.34
2023-02-25T18:23:01.578Z,4.20
2023-02-25T18:25:40.171Z,4.36
2023-02-25T18:28:15.331Z,4.29
2023-02-25T18:30:42.627Z,4.05
2023-02-25T18:33:09.338Z,4.00
2023-02-25T18:35:40.083Z,4.05
2023-02-25T18:38:07.190Z,3.92
2023-02-25T18:40:40.428Z,3.82
2023-02-25T18:43:07.601Z,4.33
2023-02-25T18:45:34.813Z,4.15
2023-02-25T18:48:01.430Z,4.29
2023-02-25T18:50:32.433Z,3.92
2023-02-25T18:53:00.467Z,3.82
2023-02-25T18:55:29.684Z,3.89
2023-02-25T18:57:56.472Z,4.25
2023-02-25T19:00:25.200Z,3.98
2023-02-25T19:02:54.721Z,3.87
2023-02-25T19:05:23.235Z,3.78
2023-02-25T19:07:50.769Z,3.99
2023-02-25T19:10:21.028Z,3.78
2023-02-25T19:12:49.270Z,4.29
2023-02-25T19:15:18.706Z,4.31
2023-02-25T19:17:45.881Z,4.54
2023-02-25T19:20:17.903Z,4.45
2023-02-25T19:22:46.903Z,4.54
2023-02-25T19:25:23.778Z,4.14
2023-02-25T19:27:52.064Z,3.75
2023-02-25T19:30:21.740Z,3.58
2023-02-25T19:32:48.564Z,3.55
2023-02-25T19:35:15.267Z,3.81
2023-02-25T19:37:42.678Z,3.63
2023-02-25T19:40:15.778Z,3.79
2023-02-25T19:42:44.389Z,3.96
2023-02-25T19:45:17.782Z,4.10
2023-02-25T19:47:45.776Z,3.81
2023-02-25T19:50:13.161Z,4.23
2023-02-25T19:52:40.048Z,4.42
2023-02-25T19:55:07.784Z,3.70
2023-02-25T19:57:34.547Z,3.67
2023-02-25T20:00:01.148Z,3.85
2023-02-25T20:02:27.826Z,3.95
2023-02-25T20:04:54.461Z,4.01
2023-02-25T20:07:21.105Z,3.64
2023-02-25T20:09:47.713Z,3.74
2023-02-25T20:12:14.414Z,3.69
2023-02-25T20:14:41.149Z,3.62
2023-02-25T20:17:08.310Z,3.25
2023-02-25T20:19:35.271Z,3.24
2023-02-25T20:22:04.796Z,3.39
2023-02-25T20:24:32.565Z,3.50
2023-02-25T20:26:59.277Z,3.51
2023-02-25T20:29:26.276Z,3.49
2023-02-25T20:31:53.278Z,3.33
2023-02-25T20:34:21.685Z,3.49
2023-02-25T20:36:57.265Z,3.37
2023-02-25T20:39:39.212Z,3.42
2023-02-25T20:42:14.248Z,3.27
2023-02-25T20:44:41.166Z,3.22
2023-02-25T20:47:20.151Z,3.65
2023-02-25T20:49:47.162Z,3.60
2023-02-25T20:52:14.929Z,3.37
2023-02-25T20:54:41.769Z,3.02
2023-02-25T20:57:11.426Z,3.07
2023-02-25T20:59:38.106Z,3.10
2023-02-25T21:02:04.698Z,3.57
2023-02-25T21:04:31.403Z,3.55
2023-02-25T21:06:58.048Z,3.56
2023-02-25T21:09:25.009Z,3.72
2023-02-25T21:11:51.748Z,3.26
2023-02-25T21:14:18.544Z,3.21
2023-02-25T21:16:45.164Z,3.13
2023-02-25T21:19:11.835Z,3.25
2023-02-25T21:21:38.559Z,3.31
2023-02-25T21:24:07.262Z,3.52
2023-02-25T21:26:34.283Z,3.12
2023-02-25T21:29:00.953Z,3.14
2023-02-25T21:31:27.675Z,3.08
2023-02-25T21:33:54.329Z,3.12
2023-02-25T21:36:20.954Z,3.31
2023-02-25T21:38:47.601Z,3.24
2023-02-25T21:41:15.183Z,2.93
2023-02-25T21:43:42.757Z,2.96
2023-02-25T21:46:12.963Z,2.94
2023-02-25T21:48:41.156Z,3.07
2023-02-25T21:51:15.691Z,3.08
2023-02-25T21:53:42.318Z,2.97
2023-02-25T21:56:12.361Z,2.97
2023-02-25T21:58:39.239Z,2.98
2023-02-25T22:01:17.751Z,3.19
2023-02-25T22:03:45.371Z,2.89
2023-02-25T22:06:13.845Z,3.13
2023-02-25T22:08:42.461Z,2.73
2023-02-25T22:11:18.127Z,2.68
2023-02-25T22:13:45.340Z,2.72
2023-02-25T22:16:14.074Z,2.85
2023-02-25T22:18:41.088Z,2.94
2023-02-25T22:21:14.590Z,2.98
2023-02-25T22:23:42.427Z,2.89
2023-02-25T22:26:12.579Z,3.29
2023-02-25T22:28:39.566Z,3.07
2023-02-25T22:31:10.172Z,2.96
2023-02-25T22:33:36.872Z,3.12
2023-02-25T22:36:05.741Z,3.08
2023-02-25T22:38:35.428Z,3.22
2023-02-25T22:41:03.331Z,3.32
2023-02-25T22:43:31.191Z,2.81
2023-02-25T22:46:25.942Z,2.90
2023-02-25T22:48:53.993Z,2.69
2023-02-25T22:51:24.342Z,2.67
2023-02-25T22:53:51.871Z,2.72
2023-02-25T22:56:18.897Z,2.55
2023-02-25T22:58:45.719Z,2.55
2023-02-25T23:01:14.618Z,2.52
2023-02-25T23:03:41.618Z,2.54
2023-02-25T23:06:10.675Z,2.47
2023-02-25T23:08:37.622Z,2.60
2023-02-25T23:11:22.613Z,2.72
2023-02-25T23:13:51.940Z,2.62
2023-02-25T23:16:31.599Z,2.67
2023-02-25T23:19:00.240Z,2.26
2023-02-25T23:21:28.156Z,2.44
2023-02-25T23:23:56.920Z,2.29
2023-02-25T23:26:26.594Z,2.12
2023-02-25T23:29:02.150Z,2.23
2023-02-25T23:31:37.666Z,2.45
2023-02-25T23:34:07.628Z,2.26
2023-02-25T23:36:38.778Z,2.33
2023-02-25T23:39:08.433Z,2.26
2023-02-25T23:41:36.486Z,2.19
2023-02-25T23:44:04.358Z,1.89
2023-02-25T23:46:32.254Z,2.05
2023-02-25T23:49:01.617Z,2.16
2023-02-25T23:51:29.245Z,2.29
2023-02-25T23:53:58.297Z,2.21
2023-02-25T23:56:25.585Z,2.20
2023-02-25T23:58:53.490Z,1.84
